Time;durP1;ratioP1;P1;durP2;ratioP2;P2;SDS_P1;SDS_P2;PMS_P1;PMS_P2;Temp;Humidity;BMP_temperature;BMP_pressure;BME280_temperature;BME280_humidity;BME280_pressure;Samples;Min_cycle;Max_cycle;Signal;HPM_P1;HPM_P2
2023/04/30 00:02:00;;;;;;;13.80;12.63;;;;;;;8.92;96.49;92519.66;5068635;28;20201;-70
2023/04/30 00:04:25;;;;;;;13.17;12.27;;;;;;;8.83;96.88;92526.44;5068633;28;20193;-71
2023/04/30 00:06:51;;;;;;;12.70;11.63;;;;;;;8.74;97.37;92522.84;5069009;28;20178;-69
2023/04/30 00:09:16;;;;;;;15.60;12.27;;;;;;;8.54;97.99;92522.97;5067795;28;20186;-70
2023/04/30 00:11:41;;;;;;;12.77;11.77;;;;;;;8.38;98.81;92508.47;5068602;28;20181;-69
2023/04/30 00:14:07;;;;;;;12.60;11.70;;;;;;;8.50;98.63;92532.38;5068504;28;20186;-70
2023/04/30 00:16:32;;;;;;;11.80;11.00;;;;;;;8.45;98.85;92522.72;5050009;28;20312;-70
2023/04/30 00:18:58;;;;;;;13.43;12.43;;;;;;;8.52;98.40;92520.63;5068175;28;20196;-69
2023/04/30 00:21:23;;;;;;;12.60;11.50;;;;;;;8.55;97.63;92525.28;5066743;28;20241;-70
2023/04/30 00:23:48;;;;;;;11.97;11.27;;;;;;;8.46;98.06;92523.53;5069277;28;20205;-70
2023/04/30 00:26:14;;;;;;;10.67;9.97;;;;;;;8.46;97.99;92510.50;5067589;28;20259;-71
2023/04/30 00:28:39;;;;;;;12.20;11.43;;;;;;;8.35;98.52;92524.59;5069402;28;20253;-70
2023/04/30 00:31:07;;;;;;;11.80;11.00;;;;;;;8.44;98.08;92523.78;5069296;28;20220;-70
2023/04/30 00:33:33;;;;;;;13.00;11.93;;;;;;;8.31;98.69;92513.19;5069786;28;20177;-70
2023/04/30 00:35:58;;;;;;;11.60;10.80;;;;;;;8.33;98.20;92521.50;5069040;28;20223;-70
2023/04/30 00:38:24;;;;;;;12.53;11.37;;;;;;;8.36;97.65;92518.38;5069216;28;20181;-70
2023/04/30 00:40:51;;;;;;;11.87;11.00;;;;;;;8.32;98.17;92514.75;5069230;28;20336;-70
2023/04/30 00:43:16;;;;;;;11.47;10.47;;;;;;;8.36;97.61;92516.53;5069169;28;20217;-70
2023/04/30 00:45:42;;;;;;;11.37;10.37;;;;;;;8.22;97.65;92494.72;5069301;28;20255;-70
2023/04/30 00:48:07;;;;;;;14.10;12.50;;;;;;;8.27;98.03;92514.75;5069072;28;20185;-70
2023/04/30 00:50:35;;;;;;;11.97;11.17;;;;;;;8.30;98.32;92507.19;5069049;28;20221;-70
2023/04/30 00:53:01;;;;;;;12.30;11.50;;;;;;;8.23;97.29;92491.13;5070086;28;20219;-69
2023/04/30 00:55:27;;;;;;;10.93;10.23;;;;;;;8.11;98.10;92508.81;5069118;28;20277;-70
2023/04/30 00:57:53;;;;;;;10.93;10.23;;;;;;;8.19;98.27;92511.66;5062329;28;20193;-70
2023/04/30 01:00:18;;;;;;;12.10;11.30;;;;;;;8.15;97.25;92500.19;5068794;28;20229;-71
2023/04/30 01:02:44;;;;;;;11.70;10.93;;;;;;;8.08;97.86;92510.13;5069481;28;20216;-70
2023/04/30 01:05:10;;;;;;;13.17;11.93;;;;;;;8.05;98.08;92500.25;5068409;28;20217;-70
2023/04/30 01:07:43;;;;;;;12.57;11.47;;;;;;;8.09;98.18;92506.47;5060199;28;20188;-71
2023/04/30 01:10:09;;;;;;;11.23;10.47;;;;;;;7.95;98.81;92491.72;5068599;28;20281;-70
2023/04/30 01:12:38;;;;;;;12.07;11.17;;;;;;;7.91;98.69;92504.44;5069632;28;20182;-71
2023/04/30 01:15:15;;;;;;;11.17;10.47;;;;;;;7.98;98.94;92504.94;5068805;28;20225;-69
2023/04/30 01:17:45;;;;;;;11.70;10.60;;;;;;;7.81;99.74;92490.72;5069095;28;20177;-71
2023/04/30 01:20:11;;;;;;;11.40;10.50;;;;;;;7.83;99.36;92505.00;5068650;28;20296;-71
2023/04/30 01:22:46;;;;;;;12.13;11.33;;;;;;;7.82;99.53;92511.25;5068890;28;20209;-70
2023/04/30 01:25:39;;;;;;;11.60;10.90;;;;;;;7.65;100.00;92510.75;5068925;28;20263;-70
2023/04/30 01:28:15;;;;;;;11.30;10.40;;;;;;;7.69;100.00;92506.59;5067928;28;20203;-70
2023/04/30 01:30:45;;;;;;;11.33;10.23;;;;;;;7.68;100.00;92507.63;5071186;28;20228;-70
2023/04/30 01:33:13;;;;;;;12.17;11.23;;;;;;;7.69;100.00;92503.97;5073122;28;21001;-70
2023/04/30 01:35:47;;;;;;;11.07;10.47;;;;;;;7.72;99.90;92498.25;5054440;28;20244;-70
2023/04/30 01:38:22;;;;;;;12.30;11.23;;;;;;;7.76;99.83;92509.69;5054904;28;20196;-70
2023/04/30 01:41:12;;;;;;;11.63;10.83;;;;;;;7.76;99.63;92495.91;5072278;28;20227;-70
2023/04/30 01:43:47;;;;;;;12.73;11.83;;;;;;;7.76;99.81;92508.91;5061704;28;20233;-70
2023/04/30 01:46:26;;;;;;;12.63;11.53;;;;;;;7.53;99.82;92480.91;5054522;28;20289;-70
2023/04/30 01:49:03;;;;;;;11.90;11.13;;;;;;;7.78;100.00;92509.44;5054887;28;20193;-70
2023/04/30 01:51:42;;;;;;;11.37;10.47;;;;;;;7.68;100.00;92504.25;5072201;28;20239;-71
2023/04/30 01:54:23;;;;;;;11.57;10.87;;;;;;;7.58;100.00;92502.44;5073049;28;20200;-70
2023/04/30 01:57:03;;;;;;;12.63;11.77;;;;;;;7.64;100.00;92498.78;5072065;28;20213;-70
2023/04/30 01:59:32;;;;;;;11.70;10.90;;;;;;;7.65;100.00;92508.16;5071803;28;20193;-70
2023/04/30 02:01:57;;;;;;;14.07;13.07;;;;;;;7.69;100.00;92503.97;5072213;28;20225;-71
2023/04/30 02:04:22;;;;;;;12.03;11.17;;;;;;;7.58;100.00;92499.09;5072013;28;20190;-71
2023/04/30 02:06:48;;;;;;;12.77;11.80;;;;;;;7.56;100.00;92486.38;5055967;28;20166;-71
2023/04/30 02:09:13;;;;;;;12.47;11.70;;;;;;;7.78;99.49;92510.19;5072449;28;20193;-70
2023/04/30 02:11:39;;;;;;;12.03;11.00;;;;;;;7.88;98.85;92510.19;5071706;28;20221;-70
2023/04/30 02:14:05;;;;;;;11.27;10.67;;;;;;;7.77;99.12;92505.25;5072732;28;20182;-71
2023/04/30 02:16:31;;;;;;;12.10;11.30;;;;;;;7.53;99.22;92440.09;5071527;28;20221;-71
2023/04/30 02:18:56;;;;;;;11.50;10.47;;;;;;;7.93;99.06;92502.38;5071890;28;20259;-70
2023/04/30 02:21:21;;;;;;;12.10;11.40;;;;;;;7.83;99.15;92502.41;5071238;28;20213;-70
2023/04/30 02:23:47;;;;;;;12.17;11.37;;;;;;;7.95;98.11;92489.88;5072457;28;20189;-70
2023/04/30 02:26:12;;;;;;;12.23;11.23;;;;;;;7.58;98.51;92452.34;5071117;28;20316;-70
2023/04/30 02:28:37;;;;;;;13.23;12.23;;;;;;;7.72;99.41;92495.66;5072079;28;20253;-71
2023/04/30 02:31:03;;;;;;;11.57;10.77;;;;;;;7.49;100.00;92491.03;5070916;28;20225;-71
2023/04/30 02:33:28;;;;;;;12.43;11.53;;;;;;;7.56;100.00;92499.34;5071810;28;20189;-70
2023/04/30 02:35:54;;;;;;;12.30;11.50;;;;;;;7.76;99.36;92501.13;5071166;28;20213;-71
2023/04/30 02:38:20;;;;;;;11.33;10.30;;;;;;;7.79;99.33;92498.00;5070548;28;20182;-71
2023/04/30 02:40:45;;;;;;;12.30;11.20;;;;;;;7.80;98.82;92483.94;5071048;28;20228;-71
2023/04/30 02:43:10;;;;;;;12.93;12.13;;;;;;;7.99;98.62;92503.13;5071739;28;20217;-70
2023/04/30 02:45:36;;;;;;;12.50;11.37;;;;;;;8.13;97.70;92510.09;5070804;28;20217;-71
2023/04/30 02:48:01;;;;;;;12.40;11.50;;;;;;;8.19;97.73;92498.63;5071509;28;20216;-70
2023/04/30 02:50:26;;;;;;;12.07;11.17;;;;;;;8.24;98.18;92499.69;5070568;28;20316;-71
2023/04/30 02:52:52;;;;;;;13.13;11.93;;;;;;;8.24;98.14;92494.47;5071617;28;20236;-71
2023/04/30 02:55:17;;;;;;;12.57;10.67;;;;;;;8.36;97.78;92500.16;5071097;28;20217;-71
2023/04/30 02:57:43;;;;;;;11.77;10.87;;;;;;;8.46;97.85;92511.31;5071174;28;20201;-71
2023/04/30 03:00:08;;;;;;;12.87;11.90;;;;;;;8.40;98.36;92508.97;5070688;28;20232;-70
2023/04/30 03:02:34;;;;;;;13.13;12.03;;;;;;;8.44;99.31;92500.38;5070953;28;20235;-72
2023/04/30 03:04:59;;;;;;;13.00;12.20;;;;;;;8.48;99.98;92518.84;5070596;28;20225;-71
2023/04/30 03:07:25;;;;;;;14.70;13.77;;;;;;;8.54;99.33;92500.34;5071241;28;20194;-71
2023/04/30 03:09:50;;;;;;;14.50;13.30;;;;;;;8.48;99.54;92482.41;5070361;28;20228;-70
2023/04/30 03:12:15;;;;;;;13.40;12.37;;;;;;;8.69;100.00;92513.25;5070826;28;20196;-70
2023/04/30 03:14:41;;;;;;;12.87;11.77;;;;;;;8.65;100.00;92501.84;5070368;28;20256;-71
2023/04/30 03:17:06;;;;;;;13.83;12.67;;;;;;;8.73;100.00;92500.50;5070863;28;20182;-71
2023/04/30 03:19:32;;;;;;;14.63;13.27;;;;;;;8.82;100.00;92515.28;5070002;28;20208;-71
2023/04/30 03:21:58;;;;;;;13.77;12.77;;;;;;;8.79;100.00;92525.44;5070950;28;20205;-71
2023/04/30 03:24:24;;;;;;;13.53;12.13;;;;;;;8.85;100.00;92519.94;5070559;28;20185;-67
2023/04/30 03:26:49;;;;;;;13.20;11.97;;;;;;;8.79;100.00;92525.44;5070278;28;20225;-68
2023/04/30 03:29:15;;;;;;;13.53;12.50;;;;;;;8.89;100.00;92522.75;5069899;28;20185;-68
2023/04/30 03:31:41;;;;;;;13.40;12.30;;;;;;;8.81;100.00;92520.75;5070585;28;20189;-67
2023/04/30 03:34:06;;;;;;;13.30;12.30;;;;;;;8.88;100.00;92521.22;5070565;28;20185;-68
2023/04/30 03:36:32;;;;;;;14.57;13.30;;;;;;;8.62;100.00;92525.00;5069699;28;20259;-66
2023/04/30 03:38:57;;;;;;;14.40;13.03;;;;;;;8.86;100.00;92513.69;5070267;28;20190;-68
2023/04/30 03:41:23;;;;;;;13.60;12.37;;;;;;;8.95;100.00;92519.09;5069725;28;20220;-71
2023/04/30 03:43:48;;;;;;;12.67;11.67;;;;;;;9.04;100.00;92527.88;5070209;28;20181;-70
2023/04/30 03:46:14;;;;;;;12.73;11.63;;;;;;;9.11;100.00;92525.75;5069862;28;20229;-71
2023/04/30 03:48:39;;;;;;;13.73;12.83;;;;;;;9.35;99.92;92537.03;5068175;28;20185;-70
2023/04/30 03:51:05;;;;;;;12.63;11.53;;;;;;;9.28;99.70;92533.94;5068617;28;20225;-70
2023/04/30 03:53:30;;;;;;;14.20;13.00;;;;;;;9.28;100.00;92534.75;5068462;28;20225;-69
2023/04/30 03:55:56;;;;;;;12.70;11.80;;;;;;;9.41;100.00;92543.75;5068726;28;20220;-70
2023/04/30 03:58:22;;;;;;;14.10;13.07;;;;;;;9.40;100.00;92545.59;5068798;28;20730;-70
2023/04/30 04:00:48;;;;;;;13.77;12.63;;;;;;;9.50;98.93;92550.72;5050917;28;20320;-71
2023/04/30 04:03:14;;;;;;;12.93;11.73;;;;;;;9.42;99.63;92543.50;5068619;28;20239;-70
2023/04/30 04:05:40;;;;;;;13.13;12.00;;;;;;;9.53;99.45;92541.56;5068716;28;20304;-70
2023/04/30 04:08:05;;;;;;;14.80;13.60;;;;;;;9.58;98.98;92546.75;5068956;28;21561;-70
2023/04/30 04:10:31;;;;;;;13.27;12.43;;;;;;;9.82;98.71;92547.59;5068327;28;20228;-68
2023/04/30 04:12:57;;;;;;;12.87;11.83;;;;;;;9.74;97.78;92542.97;5061243;28;20189;-68
2023/04/30 04:15:22;;;;;;;12.43;11.53;;;;;;;9.92;97.22;92549.31;5068190;28;20248;-70
2023/04/30 04:17:47;;;;;;;13.80;12.73;;;;;;;10.15;96.19;92553.84;5068314;28;20193;-68
2023/04/30 04:20:13;;;;;;;13.33;12.13;;;;;;;10.14;95.32;92558.25;5068184;28;20275;-68
2023/04/30 04:22:38;;;;;;;13.03;11.77;;;;;;;10.32;94.23;92562.00;5068420;28;20210;-68
2023/04/30 04:25:04;;;;;;;12.53;11.33;;;;;;;10.49;94.89;92559.72;5068470;28;20243;-68
2023/04/30 04:27:30;;;;;;;16.10;13.73;;;;;;;10.64;93.25;92567.34;5069708;28;20225;-68
2023/04/30 04:29:55;;;;;;;16.13;14.53;;;;;;;10.74;92.00;92557.56;5067188;28;20225;-67
2023/04/30 04:32:21;;;;;;;15.93;14.10;;;;;;;10.92;91.63;92559.44;5068391;28;20196;-68
2023/04/30 04:34:48;;;;;;;15.67;14.37;;;;;;;11.12;89.47;92547.94;5067219;28;20243;-68
2023/04/30 04:37:14;;;;;;;14.30;13.00;;;;;;;11.54;88.57;92560.91;5068018;28;20232;-67
2023/04/30 04:39:39;;;;;;;16.40;14.83;;;;;;;11.67;87.24;92567.28;5068447;28;21131;-67
2023/04/30 04:42:05;;;;;;;15.40;14.10;;;;;;;11.84;84.78;92586.63;5068658;28;20217;-68
2023/04/30 04:44:31;;;;;;;16.50;14.97;;;;;;;11.72;85.25;92582.88;5068753;28;20195;-68
2023/04/30 04:46:56;;;;;;;17.30;15.13;;;;;;;11.41;85.65;92577.28;5068913;28;20203;-68
2023/04/30 04:49:22;;;;;;;15.77;14.13;;;;;;;11.50;85.68;92585.28;5068530;28;20226;-68
2023/04/30 04:51:47;;;;;;;16.90;15.10;;;;;;;11.59;86.21;92589.59;5068833;28;20189;-68
2023/04/30 04:54:12;;;;;;;15.00;13.70;;;;;;;11.36;86.25;92588.59;5068524;28;20218;-68
2023/04/30 04:56:38;;;;;;;16.33;14.60;;;;;;;11.27;86.88;92587.69;5068906;28;20259;-68
2023/04/30 04:59:03;;;;;;;16.40;14.90;;;;;;;11.02;86.20;92579.41;5069691;28;20245;-69
2023/04/30 05:01:29;;;;;;;15.67;14.20;;;;;;;10.80;87.43;92582.56;5068725;28;20247;-72
2023/04/30 05:03:55;;;;;;;15.50;14.10;;;;;;;10.91;87.70;92596.28;5069803;28;20179;-70
2023/04/30 05:06:20;;;;;;;15.63;14.23;;;;;;;11.02;88.85;92590.63;5072771;28;20655;-72
2023/04/30 05:08:46;;;;;;;16.20;14.53;;;;;;;11.05;88.94;92584.09;5073340;28;20185;-70
2023/04/30 05:11:11;;;;;;;16.83;14.93;;;;;;;11.09;89.13;92596.31;5072988;28;20250;-69
2023/04/30 05:13:37;;;;;;;15.37;13.83;;;;;;;10.98;89.75;92592.25;5073250;28;20185;-70
2023/04/30 05:16:02;;;;;;;16.67;15.17;;;;;;;10.92;90.62;92584.78;5072795;28;20273;-70
2023/04/30 05:18:28;;;;;;;15.43;14.03;;;;;;;11.02;90.33;92590.63;5072929;28;20173;-69
2023/04/30 05:20:53;;;;;;;16.33;14.63;;;;;;;11.01;90.99;92586.47;5060278;28;20254;-70
2023/04/30 05:23:19;;;;;;;15.80;14.27;;;;;;;11.10;89.99;92576.16;5072731;28;20209;-70
2023/04/30 05:25:44;;;;;;;15.23;13.90;;;;;;;11.27;86.92;92592.13;5072403;28;20227;-70
2023/04/30 05:28:10;;;;;;;15.70;14.13;;;;;;;11.33;86.54;92597.00;5072789;28;20181;-70
2023/04/30 05:30:35;;;;;;;14.13;13.10;;;;;;;11.29;85.78;92575.13;5072254;28;20237;-69
2023/04/30 05:33:01;;;;;;;14.00;12.70;;;;;;;11.52;84.42;92593.63;5072558;28;20189;-69
2023/04/30 05:35:26;;;;;;;15.83;14.10;;;;;;;11.56;83.46;92597.22;5072016;28;20281;-70
2023/04/30 05:37:52;;;;;;;14.60;13.30;;;;;;;11.61;84.74;92605.00;5070038;28;20228;-67
2023/04/30 05:40:17;;;;;;;14.27;13.07;;;;;;;11.69;83.04;92588.69;5068781;28;20236;-69
2023/04/30 05:42:43;;;;;;;13.33;12.17;;;;;;;11.84;82.48;92593.66;5071184;28;20210;-68
2023/04/30 05:45:11;;;;;;;16.70;13.17;;;;;;;11.47;82.13;92591.06;5070988;28;21097;-69
2023/04/30 05:47:36;;;;;;;15.53;13.97;;;;;;;11.78;81.67;92576.50;5071362;28;20182;-69
2023/04/30 05:50:02;;;;;;;15.20;13.63;;;;;;;12.14;81.33;92598.41;5070755;28;20248;-69
2023/04/30 05:52:27;;;;;;;14.40;13.10;;;;;;;12.30;81.14;92604.91;5071057;28;20219;-69
2023/04/30 05:54:53;;;;;;;16.53;15.03;;;;;;;12.39;81.85;92600.59;5070873;28;20232;-71
2023/04/30 05:57:18;;;;;;;17.00;15.40;;;;;;;12.24;81.79;92587.75;5070835;28;20221;-71
2023/04/30 05:59:43;;;;;;;14.93;13.53;;;;;;;12.46;81.47;92603.59;5070766;28;20236;-72
2023/04/30 06:02:09;;;;;;;16.63;15.07;;;;;;;12.43;82.23;92604.97;5070541;28;20231;-73
2023/04/30 06:04:35;;;;;;;19.03;15.60;;;;;;;12.33;83.38;92596.50;5052932;28;20231;-71
2023/04/30 06:07:00;;;;;;;22.30;15.80;;;;;;;12.17;84.30;92593.38;5070716;28;20189;-72
2023/04/30 06:09:25;;;;;;;20.90;15.33;;;;;;;12.27;82.46;92616.75;5070435;28;20181;-70
2023/04/30 06:11:52;;;;;;;18.67;16.07;;;;;;;12.35;82.55;92612.69;5070787;28;20212;-70
2023/04/30 06:14:19;;;;;;;19.47;17.40;;;;;;;12.29;83.30;92608.63;5070344;28;20174;-70
2023/04/30 06:16:44;;;;;;;21.00;16.63;;;;;;;12.48;81.77;92607.47;5070581;28;20220;-69
2023/04/30 06:19:11;;;;;;;19.93;15.50;;;;;;;12.87;79.54;92617.50;5070787;28;20245;-69
2023/04/30 06:21:36;;;;;;;16.83;15.10;;;;;;;12.81;79.58;92613.41;5070028;28;21022;-71
2023/04/30 06:24:02;;;;;;;18.73;15.53;;;;;;;13.06;79.32;92623.41;5077757;28;20186;-71
2023/04/30 06:26:27;;;;;;;17.20;14.87;;;;;;;12.96;78.96;92628.84;5069836;28;20224;-70
2023/04/30 06:28:53;;;;;;;22.57;16.27;;;;;;;13.05;78.39;92605.38;5070634;28;20268;-70
2023/04/30 06:31:18;;;;;;;27.67;15.60;;;;;;;12.69;78.05;92619.13;5069946;28;20259;-71
2023/04/30 06:33:43;;;;;;;21.67;15.33;;;;;;;13.08;77.82;92626.53;5069778;28;20197;-70
2023/04/30 06:36:09;;;;;;;18.73;16.53;;;;;;;13.57;76.29;92634.41;5069860;28;20236;-70
2023/04/30 06:38:34;;;;;;;18.83;15.53;;;;;;;13.92;73.48;92627.59;5070285;28;20205;-70
2023/04/30 06:40:59;;;;;;;16.70;15.13;;;;;;;14.06;73.13;92633.56;5069736;28;20221;-69
2023/04/30 06:43:25;;;;;;;19.90;15.60;;;;;;;14.08;72.91;92620.91;5070833;28;20228;-69
2023/04/30 06:45:50;;;;;;;18.57;16.67;;;;;;;14.31;70.38;92633.78;5070203;28;20220;-70
2023/04/30 06:48:16;;;;;;;17.73;15.90;;;;;;;13.80;73.34;92625.50;5071400;28;20190;-73
2023/04/30 06:50:44;;;;;;;21.33;15.20;;;;;;;14.24;72.07;92643.16;5070773;28;20228;-70
2023/04/30 06:53:13;;;;;;;17.57;15.70;;;;;;;14.58;69.94;92645.97;5071359;28;20241;-72
2023/04/30 06:55:39;;;;;;;20.20;16.00;;;;;;;13.67;73.79;92647.31;5069499;28;20250;-69
2023/04/30 06:58:05;;;;;;;17.87;16.27;;;;;;;14.82;69.53;92640.38;5069399;28;20182;-69
2023/04/30 07:00:31;;;;;;;17.27;15.43;;;;;;;15.90;64.77;92649.94;5070203;28;20224;-69
2023/04/30 07:02:59;;;;;;;18.47;16.37;;;;;;;15.91;64.96;92640.94;5070451;28;20209;-69
2023/04/30 07:05:25;;;;;;;18.37;16.40;;;;;;;15.41;66.36;92650.34;5050712;28;20256;-69
2023/04/30 07:07:51;;;;;;;18.07;16.30;;;;;;;15.54;66.38;92644.16;5070701;28;20190;-69
2023/04/30 07:10:17;;;;;;;22.70;16.87;;;;;;;15.30;67.94;92644.53;5070671;28;20240;-69
2023/04/30 07:12:43;;;;;;;18.87;16.07;;;;;;;15.27;68.03;92641.75;5070990;28;20173;-70
2023/04/30 07:15:09;;;;;;;19.70;16.73;;;;;;;15.43;67.94;92643.69;5070264;28;20274;-69
2023/04/30 07:17:35;;;;;;;17.70;15.77;;;;;;;14.34;68.74;92633.16;5068985;28;20325;-71
2023/04/30 07:20:00;;;;;;;20.43;17.73;;;;;;;14.85;69.55;92631.88;5064893;28;20239;-70
2023/04/30 07:22:26;;;;;;;17.30;15.50;;;;;;;15.21;68.61;92656.13;5068881;28;20225;-68
2023/04/30 07:24:52;;;;;;;16.47;14.87;;;;;;;15.04;68.66;92646.31;5069129;28;20682;-67
2023/04/30 07:27:17;;;;;;;19.60;16.47;;;;;;;15.17;68.25;92652.56;5068023;28;20221;-70
2023/04/30 07:29:42;;;;;;;15.57;13.97;;;;;;;14.79;67.97;92641.72;5068419;28;20248;-69
2023/04/30 07:32:08;;;;;;;18.17;16.13;;;;;;;14.95;69.63;92648.16;5069076;28;20181;-69
2023/04/30 07:34:33;;;;;;;18.93;15.10;;;;;;;14.85;68.96;92624.00;5068578;28;20216;-67
2023/04/30 07:36:58;;;;;;;16.67;15.03;;;;;;;14.92;69.17;92645.34;5069199;28;20196;-68
2023/04/30 07:39:24;;;;;;;17.30;15.70;;;;;;;14.84;68.94;92651.34;5068325;28;20204;-67
2023/04/30 07:41:49;;;;;;;15.33;13.93;;;;;;;14.69;70.30;92649.13;5068750;28;20213;-67
2023/04/30 07:44:15;;;;;;;18.90;14.83;;;;;;;14.34;72.14;92654.19;5068385;28;20193;-70
2023/04/30 07:46:40;;;;;;;15.00;13.53;;;;;;;14.02;69.87;92651.75;5068200;28;20209;-67
2023/04/30 07:49:06;;;;;;;16.30;13.07;;;;;;;13.92;70.63;92652.00;5068436;28;20189;-70
2023/04/30 07:51:31;;;;;;;16.00;14.50;;;;;;;13.94;73.05;92638.56;5062458;28;20226;-70
2023/04/30 07:53:57;;;;;;;18.30;14.70;;;;;;;14.17;73.10;92659.28;5067963;28;20185;-70
2023/04/30 07:56:22;;;;;;;17.17;14.47;;;;;;;14.36;69.96;92646.00;5068847;28;20212;-70
2023/04/30 07:58:47;;;;;;;15.03;13.43;;;;;;;14.47;69.29;92653.31;5067996;28;20185;-70
2023/04/30 08:01:14;;;;;;;16.73;13.57;;;;;;;14.54;69.45;92652.88;5043159;28;20221;-71
2023/04/30 08:03:39;;;;;;;15.57;14.13;;;;;;;14.68;68.69;92665.97;5068097;28;20216;-71
2023/04/30 08:06:05;;;;;;;16.97;15.57;;;;;;;14.88;68.42;92668.06;5067472;28;20224;-69
2023/04/30 08:08:31;;;;;;;17.13;15.33;;;;;;;15.10;67.61;92660.09;5068651;28;20272;-70
2023/04/30 08:10:56;;;;;;;16.37;14.67;;;;;;;15.34;66.59;92665.75;5068161;28;20221;-66
2023/04/30 08:13:22;;;;;;;15.43;13.83;;;;;;;15.24;67.77;92666.03;5067904;28;20186;-66
2023/04/30 08:15:47;;;;;;;12.57;11.27;;;;;;;15.12;64.33;92663.19;5068106;28;20218;-65
2023/04/30 08:18:12;;;;;;;14.13;12.70;;;;;;;15.39;64.44;92663.03;5068425;28;20185;-65
2023/04/30 08:20:38;;;;;;;12.00;10.90;;;;;;;15.41;64.26;92666.13;5066185;28;20225;-65
2023/04/30 08:23:04;;;;;;;12.90;11.10;;;;;;;15.37;64.67;92667.78;5068412;28;20205;-66
2023/04/30 08:25:30;;;;;;;11.17;10.33;;;;;;;15.46;63.56;92674.63;5068581;28;20224;-65
2023/04/30 08:27:56;;;;;;;12.03;11.00;;;;;;;15.21;63.94;92667.41;5067542;28;20290;-65
2023/04/30 08:30:21;;;;;;;14.37;11.97;;;;;;;15.17;64.36;92661.22;5066304;28;20252;-66
2023/04/30 08:32:48;;;;;;;12.50;11.47;;;;;;;15.17;62.48;92676.22;5066455;28;20189;-65
2023/04/30 08:35:15;;;;;;;12.17;10.90;;;;;;;15.41;62.15;92669.50;5059495;28;20248;-65
2023/04/30 08:37:41;;;;;;;11.90;11.00;;;;;;;15.33;62.03;92677.38;5068065;28;20232;-64
2023/04/30 08:40:08;;;;;;;12.53;11.73;;;;;;;15.29;61.18;92673.78;5070841;28;20229;-70
2023/04/30 08:42:36;;;;;;;13.13;11.87;;;;;;;15.36;62.10;92669.63;5071957;28;20201;-68
2023/04/30 08:45:03;;;;;;;11.87;11.03;;;;;;;15.74;61.06;92670.66;5054121;28;20229;-69
2023/04/30 08:47:29;;;;;;;11.37;10.37;;;;;;;15.02;60.11;92674.75;5071872;28;20185;-68
2023/04/30 08:49:54;;;;;;;10.97;10.27;;;;;;;15.38;61.41;92669.34;5071374;28;20213;-68
2023/04/30 08:52:21;;;;;;;11.60;10.80;;;;;;;15.45;59.56;92675.72;5071721;28;20209;-67
2023/04/30 08:54:47;;;;;;;11.57;10.83;;;;;;;15.73;59.80;92678.88;5071436;28;20220;-67
2023/04/30 08:57:13;;;;;;;11.30;10.40;;;;;;;16.51;56.54;92667.28;5072344;28;20200;-67
2023/04/30 08:59:38;;;;;;;10.70;10.10;;;;;;;16.78;56.78;92667.69;5071183;28;20259;-68
2023/04/30 09:02:04;;;;;;;11.10;10.40;;;;;;;16.97;53.04;92664.66;5071858;28;20278;-68
2023/04/30 09:04:29;;;;;;;10.53;9.93;;;;;;;17.14;51.75;92668.03;5071769;28;20191;-68
2023/04/30 09:06:58;;;;;;;10.57;9.90;;;;;;;16.60;54.65;92653.00;5071246;28;20189;-70
2023/04/30 09:09:28;;;;;;;10.77;10.03;;;;;;;16.27;56.10;92657.19;5071537;28;20216;-69
2023/04/30 09:12:18;;;;;;;11.10;10.30;;;;;;;15.81;57.81;92663.06;5071467;28;20193;-68
2023/04/30 09:15:04;;;;;;;10.97;10.30;;;;;;;16.03;59.94;92641.13;5067767;28;20229;-70
2023/04/30 09:17:32;;;;;;;11.17;10.37;;;;;;;16.37;57.73;92641.06;5071848;28;20193;-70
2023/04/30 09:20:12;;;;;;;11.80;10.80;;;;;;;16.31;58.44;92629.13;5071350;28;20232;-68
2023/04/30 09:22:39;;;;;;;10.53;9.70;;;;;;;16.39;57.40;92628.34;5071762;28;20230;-70
2023/04/30 09:25:06;;;;;;;11.97;10.93;;;;;;;16.55;58.73;92632.06;5071523;28;20618;-69
2023/04/30 09:27:32;;;;;;;12.50;11.60;;;;;;;16.75;56.45;92636.66;5071833;28;20213;-70
2023/04/30 09:29:57;;;;;;;12.37;11.47;;;;;;;16.26;55.71;92579.25;5058650;28;20225;-69
2023/04/30 09:32:23;;;;;;;11.13;10.33;;;;;;;16.56;55.23;92633.59;5058419;28;20261;-67
2023/04/30 09:34:48;;;;;;;10.73;10.00;;;;;;;16.33;54.77;92634.88;5071060;28;20268;-68
2023/04/30 09:37:15;;;;;;;11.83;10.87;;;;;;;16.35;55.57;92622.16;5070572;28;20315;-68
2023/04/30 09:39:52;;;;;;;12.33;10.87;;;;;;;16.37;57.04;92620.00;5071071;28;20237;-66
2023/04/30 09:42:18;;;;;;;11.47;10.77;;;;;;;17.20;52.64;92621.91;5071191;28;20227;-67
2023/04/30 09:44:45;;;;;;;10.30;9.47;;;;;;;17.08;53.65;92608.63;5071007;28;21055;-67
2023/04/30 09:47:20;;;;;;;10.70;10.10;;;;;;;17.17;53.79;92627.03;5071366;28;20181;-69
2023/04/30 09:49:53;;;;;;;9.67;9.17;;;;;;;17.82;52.78;92618.63;5070416;28;20229;-70
2023/04/30 09:52:19;;;;;;;10.37;9.77;;;;;;;17.49;51.82;92619.28;5070817;28;20245;-68
2023/04/30 09:54:46;;;;;;;10.77;10.13;;;;;;;17.57;52.39;92621.09;5071562;28;20289;-70
2023/04/30 09:57:15;;;;;;;10.03;9.53;;;;;;;18.02;49.29;92620.47;5071961;28;20202;-70
2023/04/30 09:59:45;;;;;;;9.77;9.17;;;;;;;18.20;50.09;92616.59;5071573;28;20682;-71
2023/04/30 10:02:15;;;;;;;13.23;12.00;;;;;;;18.27;49.15;92600.97;5071753;28;20264;-78
2023/04/30 10:04:46;;;;;;;10.63;10.03;;;;;;;18.42;48.74;92608.31;5071905;28;20235;-74
2023/04/30 10:07:18;;;;;;;10.17;9.57;;;;;;;17.78;49.86;92602.63;5070981;28;20198;-74
2023/04/30 10:09:48;;;;;;;11.50;10.70;;;;;;;17.25;51.66;92600.63;5070324;28;20273;-75
2023/04/30 10:12:15;;;;;;;10.67;10.00;;;;;;;17.29;52.05;92609.44;5072279;28;20246;-74
2023/04/30 10:15:38;;;;;;;11.07;10.30;;;;;;;17.13;51.63;92603.16;5053690;28;20241;-74
2023/04/30 10:18:13;;;;;;;9.80;9.33;;;;;;;17.20;48.92;92602.66;5044995;28;20261;-74
2023/04/30 10:20:40;;;;;;;9.40;8.90;;;;;;;17.30;47.88;92599.66;5070229;28;20284;-74
2023/04/30 10:23:07;;;;;;;11.27;10.47;;;;;;;17.84;48.67;92597.94;5069729;28;20861;-73
2023/04/30 10:25:33;;;;;;;11.47;10.57;;;;;;;17.10;50.36;92590.63;5070048;28;20888;-73
2023/04/30 10:27:58;;;;;;;11.07;10.10;;;;;;;16.16;53.14;92584.84;5070197;28;20248;-74
2023/04/30 10:30:24;;;;;;;10.97;10.00;;;;;;;16.38;54.24;92592.56;5070301;28;20230;-74
2023/04/30 10:33:07;;;;;;;10.77;10.07;;;;;;;16.20;54.95;92603.44;5070847;28;20192;-73
2023/04/30 10:35:59;;;;;;;11.87;9.63;;;;;;;15.74;58.79;92609.34;5070310;28;20319;-74
2023/04/30 10:38:29;;;;;;;11.43;10.63;;;;;;;15.08;61.77;92609.69;5070715;28;20227;-74
2023/04/30 10:41:02;;;;;;;11.10;10.13;;;;;;;14.11;71.76;92639.47;5070978;28;20217;-74
2023/04/30 10:43:32;;;;;;;13.03;12.03;;;;;;;12.69;82.85;92642.72;5053674;28;20467;-74
2023/04/30 10:45:57;;;;;;;11.80;11.10;;;;;;;12.09;87.88;92642.97;5053573;28;20219;-74
2023/04/30 10:48:24;;;;;;;13.83;12.93;;;;;;;11.89;88.28;92630.22;5071515;28;20193;-74
2023/04/30 10:50:56;;;;;;;14.13;13.00;;;;;;;12.38;91.41;92646.94;5070939;28;20221;-74
2023/04/30 10:53:24;;;;;;;13.87;12.87;;;;;;;13.02;92.47;92637.41;5071305;28;20207;-73
2023/04/30 10:55:53;;;;;;;14.33;13.23;;;;;;;13.52;89.26;92626.66;5057100;28;20273;-74
2023/04/30 10:58:26;;;;;;;15.50;14.10;;;;;;;14.16;89.86;92625.44;5071224;28;20244;-74
2023/04/30 11:01:09;;;;;;;14.07;12.90;;;;;;;14.43;88.64;92612.97;5071179;28;20222;-74
2023/04/30 11:03:36;;;;;;;13.63;12.33;;;;;;;14.38;86.77;92609.72;5070546;28;20205;-74
2023/04/30 11:06:13;;;;;;;13.27;12.27;;;;;;;14.63;87.29;92608.28;5070678;28;20225;-74
2023/04/30 11:08:43;;;;;;;12.53;11.70;;;;;;;14.80;81.20;92616.25;5071042;28;20180;-74
2023/04/30 11:11:10;;;;;;;12.63;11.63;;;;;;;15.07;79.87;92619.41;5070476;28;20304;-73
2023/04/30 11:13:41;;;;;;;12.07;11.27;;;;;;;15.70;78.82;92608.41;5071276;28;20180;-74
2023/04/30 11:16:06;;;;;;;13.97;11.70;;;;;;;15.73;78.13;92615.69;5070232;28;20925;-74
2023/04/30 11:18:32;;;;;;;11.20;10.53;;;;;;;16.21;73.67;92626.06;5071008;28;20189;-74
2023/04/30 11:20:57;;;;;;;11.17;10.37;;;;;;;16.20;72.37;92622.66;5070398;28;20229;-74